Tintah, Minnesota
Current Conditions -  °F | °C
As of 5:35 AM on Saturday 25 Oct 2014 (Local Time) from KY63 Reporting Station
Clear Clear  
Wind Chill: 40°   Ceiling: Unl
Heat Index: 44°   Visibility: 10mi
Dew Point: 34°   Wind: 6mph
Humidity: 69%   Direction: 300°WNW
Pressure: 30.04"   Gusts: NA
Location:  46.01°N, 96.32°W
Report Text: KY63 251035Z AUTO 30005KT 10SM CLR 06/01 A3004 RMK AO2 T00640010
Loading
Personal Weather Stations






























Interactive Weather Map
Tropical Storm Tracking
New forecast layout! Learn more

10-Day Weather Forecast

Advertisements
Track Severe Weather on mobile